Terminal Aerodrome Forecast
Issued by NWS

Home | Current Version | Previous Version | Text Only | Print | Product List | Glossary On
Versions: 1 2 3 4 5 6 7 8 9 10 11 12 13 14 15 16 17 18
074
FTUS43 KAPX 232334
TAFPLN
TAF
KPLN 232334Z 2400/2424 33005KT P6SM BKN250
     FM240200 VRB03KT P6SM BKN070 OVC200
     FM240900 19005KT P6SM VCSH BKN080
     FM241400 20009G15KT P6SM SHRA OVC050
     FM241800 22012KT P6SM BKN040=

USA.gov is the U.S. government's official web portal to all federal, state and local government web resources and services.